Aviation Digital Data Service (ADDS)

Output produced by METARs form (0459 UTC 30 June 2022)
found at http://aviationweather.gov/metar/data/
 
LIRZ 300450Z AUTO 01004KT 9999 NCD 18/15 Q1014
LIRZ 300420Z AUTO 01005KT 9999 NCD 16/14 Q1014
TAF LIRZ 292300Z 3000/3024 VRB04KT CAVOK 
     BECMG 3009/3011 25010KT 
     BECMG 3018/3020 VRB04KT